createdAt,value
2018-01-18T00:02:20.264Z,11.43
2018-01-18T00:04:47.167Z,12.32
2018-01-18T00:07:14.095Z,13.90
2018-01-18T00:09:41.015Z,22.27
2018-01-18T00:12:07.937Z,26.92
2018-01-18T00:14:34.859Z,21.40
2018-01-18T00:17:01.775Z,13.30
2018-01-18T00:19:28.683Z,17.00
2018-01-18T00:21:55.603Z,25.33
2018-01-18T00:24:22.508Z,21.48
2018-01-18T00:26:49.415Z,7.78
2018-01-18T00:29:16.316Z,18.67
2018-01-18T00:31:43.228Z,16.65
2018-01-18T00:34:10.128Z,12.77
2018-01-18T00:36:37.079Z,10.55
2018-01-18T00:39:04.780Z,13.68
2018-01-18T00:41:31.704Z,6.55
2018-01-18T00:43:58.608Z,10.73
2018-01-18T00:46:25.525Z,10.07
2018-01-18T00:48:52.431Z,15.93
2018-01-18T00:51:19.359Z,12.18
2018-01-18T00:53:46.264Z,11.07
2018-01-18T00:56:13.182Z,13.10
2018-01-18T00:58:40.851Z,7.20
2018-01-18T01:01:07.780Z,13.50
2018-01-18T01:03:35.456Z,12.52
2018-01-18T01:06:02.375Z,12.88
2018-01-18T01:08:29.276Z,9.90
2018-01-18T01:10:56.213Z,26.23
2018-01-18T01:13:23.127Z,22.75
2018-01-18T01:15:50.056Z,12.20
2018-01-18T01:18:17.733Z,12.32
2018-01-18T01:20:45.421Z,15.05
2018-01-18T01:23:12.333Z,9.98
2018-01-18T01:25:40.024Z,12.02
2018-01-18T01:28:06.924Z,14.00
2018-01-18T01:30:33.836Z,12.25
2018-01-18T01:33:00.756Z,17.73
2018-01-18T01:35:27.660Z,12.55
2018-01-18T01:37:54.596Z,15.77
2018-01-18T01:40:21.504Z,12.68
2018-01-18T01:42:48.420Z,23.77
2018-01-18T01:45:15.329Z,16.15
2018-01-18T01:47:42.253Z,13.52
2018-01-18T01:50:09.159Z,14.77
2018-01-18T01:52:36.076Z,10.75
2018-01-18T01:55:03.752Z,10.95
2018-01-18T01:57:30.701Z,16.83
2018-01-18T01:59:57.608Z,10.35
2018-01-18T02:02:24.525Z,21.60
2018-01-18T02:04:51.440Z,13.80
2018-01-18T02:07:18.367Z,14.45
2018-01-18T02:09:46.036Z,14.15
2018-01-18T02:12:12.956Z,14.45
2018-01-18T02:14:39.860Z,19.73
2018-01-18T02:17:06.782Z,13.68
2018-01-18T02:19:33.688Z,16.65
2018-01-18T02:22:00.613Z,17.52
2018-01-18T02:24:27.516Z,17.08
2018-01-18T02:26:54.436Z,13.50
2018-01-18T02:29:22.115Z,16.48
2018-01-18T02:31:49.031Z,21.65
2018-01-18T02:34:16.708Z,14.70
2018-01-18T02:36:44.392Z,16.35
2018-01-18T02:39:11.295Z,13.10
2018-01-18T02:41:38.213Z,9.07
2018-01-18T02:44:05.132Z,18.23
2018-01-18T02:46:32.066Z,15.38
2018-01-18T02:48:58.981Z,14.35
2018-01-18T02:51:26.674Z,18.35
2018-01-18T02:53:53.592Z,18.77
2018-01-18T02:56:21.284Z,18.85
2018-01-18T02:58:48.204Z,19.12
2018-01-18T03:01:15.897Z,14.55
2018-01-18T03:03:42.807Z,18.45
2018-01-18T03:06:10.489Z,16.50
2018-01-18T03:08:37.422Z,23.60
2018-01-18T03:11:04.337Z,18.23
2018-01-18T03:13:31.241Z,17.48
2018-01-18T03:15:58.164Z,15.23
2018-01-18T03:18:25.070Z,12.45
2018-01-18T03:20:51.993Z,15.25
2018-01-18T03:23:18.900Z,10.15
2018-01-18T03:25:45.816Z,17.23
2018-01-18T03:28:12.724Z,9.57
2018-01-18T03:30:39.630Z,14.23
2018-01-18T03:33:06.556Z,10.38
2018-01-18T03:35:34.238Z,10.52
2018-01-18T03:38:01.168Z,8.85
2018-01-18T03:40:28.080Z,8.20
2018-01-18T03:42:55.009Z,8.00
2018-01-18T03:45:21.915Z,11.77
2018-01-18T03:47:48.839Z,11.48
2018-01-18T03:50:16.512Z,13.20
2018-01-18T03:52:43.452Z,19.58
2018-01-18T03:55:10.372Z,9.05
2018-01-18T03:57:38.064Z,16.37
2018-01-18T04:00:04.975Z,10.82
2018-01-18T04:02:31.901Z,15.05
2018-01-18T04:04:58.800Z,8.57
2018-01-18T04:07:25.730Z,18.42
2018-01-18T04:09:52.635Z,10.45
2018-01-18T04:12:19.558Z,18.12
2018-01-18T04:14:46.464Z,15.88
2018-01-18T04:17:13.386Z,12.10
2018-01-18T04:19:41.972Z,16.02
2018-01-18T04:22:09.664Z,15.18
2018-01-18T04:24:36.577Z,15.38
2018-01-18T04:27:04.267Z,23.42
2018-01-18T04:29:31.172Z,22.15
2018-01-18T04:31:58.096Z,23.55
2018-01-18T04:34:25.039Z,24.83
2018-01-18T04:36:51.952Z,28.75
2018-01-18T04:39:18.848Z,22.70
2018-01-18T04:41:45.761Z,24.17
2018-01-18T04:44:12.668Z,27.27
2018-01-18T04:46:39.597Z,18.77
2018-01-18T04:49:07.271Z,27.15
2018-01-18T04:51:34.961Z,28.40
2018-01-18T04:54:01.879Z,18.05
2018-01-18T04:56:28.805Z,22.77
2018-01-18T04:58:56.487Z,20.23
2018-01-18T05:01:23.400Z,15.45
2018-01-18T05:03:50.304Z,20.15
2018-01-18T05:06:17.232Z,19.33
2018-01-18T05:08:44.136Z,20.95
2018-01-18T05:11:11.062Z,18.27
2018-01-18T05:13:37.972Z,22.92
2018-01-18T05:16:04.901Z,21.02
2018-01-18T05:18:31.836Z,26.62
2018-01-18T05:20:58.765Z,23.80
2018-01-18T05:23:26.432Z,22.45
2018-01-18T05:25:54.126Z,17.90
2018-01-18T05:28:21.036Z,19.73
2018-01-18T05:30:48.728Z,22.23
2018-01-18T05:33:15.638Z,30.98
2018-01-18T05:35:43.337Z,21.65
2018-01-18T05:38:10.240Z,21.40
2018-01-18T05:40:37.944Z,27.85
2018-01-18T05:43:04.860Z,31.60
2018-01-18T05:45:32.547Z,30.95
2018-01-18T05:47:59.464Z,32.05
2018-01-18T05:50:27.155Z,35.13
2018-01-18T05:52:54.068Z,25.23
2018-01-18T05:55:21.756Z,37.60
2018-01-18T05:57:48.729Z,24.85
2018-01-18T06:00:15.664Z,31.37
2018-01-18T06:02:43.485Z,31.48
2018-01-18T06:05:10.427Z,38.30
2018-01-18T06:07:38.104Z,30.37
2018-01-18T06:10:05.023Z,34.08
2018-01-18T06:12:32.705Z,32.97
2018-01-18T06:15:00.388Z,27.58
2018-01-18T06:17:27.291Z,39.42
2018-01-18T06:19:54.970Z,26.62
2018-01-18T06:22:22.639Z,28.25
2018-01-18T06:24:49.551Z,35.25
2018-01-18T06:27:16.487Z,27.92
2018-01-18T06:29:43.400Z,33.42
2018-01-18T06:32:10.338Z,34.95
2018-01-18T06:34:37.244Z,31.70
2018-01-18T06:37:04.937Z,35.92
2018-01-18T06:39:31.851Z,36.00
2018-01-18T06:41:59.548Z,24.23
2018-01-18T06:44:26.469Z,30.33
2018-01-18T06:46:53.431Z,32.78
2018-01-18T06:49:20.337Z,37.72
2018-01-18T06:51:48.030Z,29.73
2018-01-18T06:54:14.967Z,26.37
2018-01-18T06:56:41.901Z,29.52
2018-01-18T06:59:09.582Z,29.05
2018-01-18T07:01:36.517Z,33.70
2018-01-18T07:04:04.205Z,25.75
2018-01-18T07:06:31.112Z,32.90
2018-01-18T07:08:58.807Z,28.95
2018-01-18T07:11:25.712Z,44.83
2018-01-18T07:13:53.391Z,34.03
2018-01-18T07:16:20.316Z,32.83
2018-01-18T07:18:47.277Z,30.85
2018-01-18T07:21:14.963Z,27.05
2018-01-18T07:23:41.868Z,33.95
2018-01-18T07:26:09.579Z,40.92
2018-01-18T07:28:36.497Z,29.33
2018-01-18T07:31:03.461Z,26.33
2018-01-18T07:33:30.378Z,32.50
2018-01-18T07:35:58.068Z,29.75
2018-01-18T07:38:24.980Z,35.50
2018-01-18T07:40:51.912Z,44.13
2018-01-18T07:43:18.833Z,35.13
2018-01-18T07:45:45.763Z,32.65
2018-01-18T07:48:12.668Z,44.15
2018-01-18T07:50:39.592Z,42.22
2018-01-18T07:53:07.268Z,39.08
2018-01-18T07:55:34.960Z,39.33
2018-01-18T07:58:01.881Z,48.97
2018-01-18T08:00:29.705Z,33.85
2018-01-18T08:02:56.652Z,42.33
2018-01-18T08:05:23.587Z,38.35
2018-01-18T08:07:50.501Z,43.92
2018-01-18T08:10:17.436Z,43.17
2018-01-18T08:12:44.335Z,40.88
2018-01-18T08:15:14.480Z,50.92
2018-01-18T08:17:41.431Z,36.35
2018-01-18T08:20:08.360Z,35.05
2018-01-18T08:22:36.172Z,31.65
2018-01-18T08:25:03.114Z,42.55
2018-01-18T08:27:30.024Z,45.08
2018-01-18T08:29:57.725Z,46.97
2018-01-18T08:32:24.629Z,32.65
2018-01-18T08:34:52.333Z,39.40
2018-01-18T08:37:19.256Z,33.75
2018-01-18T08:39:46.180Z,29.12
2018-01-18T08:42:13.864Z,35.70
2018-01-18T08:44:40.813Z,40.12
2018-01-18T08:47:07.760Z,39.72
2018-01-18T08:49:34.707Z,33.60
2018-01-18T08:52:01.628Z,24.50
2018-01-18T08:54:29.320Z,28.27
2018-01-18T08:56:56.261Z,32.72
2018-01-18T08:59:23.192Z,33.90
2018-01-18T09:01:50.864Z,27.05
2018-01-18T09:04:17.789Z,26.30
2018-01-18T09:06:45.486Z,28.85
2018-01-18T09:09:12.411Z,35.28
2018-01-18T09:11:39.336Z,26.60
2018-01-18T09:14:07.023Z,25.55
2018-01-18T09:16:33.940Z,19.27
2018-01-18T09:19:01.632Z,22.65
2018-01-18T09:21:28.547Z,23.70
2018-01-18T09:23:56.243Z,22.00
2018-01-18T09:26:23.937Z,25.17
2018-01-18T09:28:50.865Z,20.42
2018-01-18T09:31:17.772Z,24.33
2018-01-18T09:33:45.472Z,21.75
2018-01-18T09:36:12.396Z,19.90
2018-01-18T09:38:39.328Z,20.88
2018-01-18T09:41:06.260Z,17.02
2018-01-18T09:43:33.943Z,17.48
2018-01-18T09:46:00.859Z,15.60
2018-01-18T09:48:27.801Z,20.08
2018-01-18T09:50:55.484Z,16.25
2018-01-18T09:53:22.416Z,15.57
2018-01-18T09:55:50.092Z,20.58
2018-01-18T09:58:17.012Z,18.98
2018-01-18T10:00:43.919Z,23.12
2018-01-18T10:03:10.831Z,15.00
2018-01-18T10:05:37.744Z,16.08
2018-01-18T10:08:04.694Z,14.50
2018-01-18T10:10:32.401Z,13.55
2018-01-18T10:12:59.336Z,21.20
2018-01-18T10:15:26.242Z,19.90
2018-01-18T10:17:53.928Z,15.80
2018-01-18T10:20:20.844Z,14.20
2018-01-18T10:22:47.777Z,14.57
2018-01-18T10:25:14.688Z,11.52
2018-01-18T10:27:41.619Z,11.00
2018-01-18T10:30:08.530Z,16.30
2018-01-18T10:32:36.255Z,9.88
2018-01-18T10:35:03.152Z,8.43
2018-01-18T10:37:30.067Z,9.13
2018-01-18T10:39:56.974Z,7.85
2018-01-18T10:42:23.908Z,14.90
2018-01-18T10:44:50.810Z,7.00
2018-01-18T10:47:18.655Z,6.62
2018-01-18T10:49:45.564Z,6.80
2018-01-18T10:52:12.487Z,8.80
2018-01-18T10:54:39.392Z,8.45
2018-01-18T10:57:06.322Z,4.87
2018-01-18T10:59:33.234Z,4.60
2018-01-18T11:02:01.004Z,4.72
2018-01-18T11:04:27.977Z,4.95
2018-01-18T11:06:54.868Z,6.28
2018-01-18T11:09:21.772Z,5.12
2018-01-18T11:11:48.688Z,5.82
2018-01-18T11:14:16.359Z,4.00
2018-01-18T11:16:43.291Z,6.93
2018-01-18T11:19:10.978Z,9.20
2018-01-18T11:21:37.904Z,6.72
2018-01-18T11:24:04.817Z,3.70
2018-01-18T11:26:31.751Z,8.80
2018-01-18T11:28:58.688Z,4.85
2018-01-18T11:31:25.616Z,4.10
2018-01-18T11:33:52.536Z,6.28
2018-01-18T11:36:19.470Z,4.35
2018-01-18T11:38:46.377Z,5.90
2018-01-18T11:41:14.073Z,4.68
2018-01-18T11:43:40.979Z,4.43
2018-01-18T11:46:07.915Z,4.80
2018-01-18T11:48:34.823Z,5.87
2018-01-18T11:51:01.768Z,4.90
2018-01-18T11:53:28.680Z,5.03
2018-01-18T11:55:58.283Z,7.75
2018-01-18T11:58:25.204Z,4.40
2018-01-18T12:00:52.129Z,7.90
2018-01-18T12:03:19.039Z,4.28
2018-01-18T12:05:45.968Z,5.45
2018-01-18T12:08:12.883Z,3.37
2018-01-18T12:10:39.815Z,3.25
2018-01-18T12:13:06.715Z,5.20
2018-01-18T12:15:33.639Z,8.30
2018-01-18T12:18:01.327Z,3.30
2018-01-18T12:20:28.245Z,5.25
2018-01-18T12:22:55.154Z,7.90
2018-01-18T12:25:22.096Z,3.80
2018-01-18T12:27:49.018Z,5.70
2018-01-18T12:30:15.940Z,8.23
2018-01-18T12:32:42.835Z,3.70
2018-01-18T12:35:09.756Z,7.45
2018-01-18T12:37:36.668Z,4.82
2018-01-18T12:40:03.601Z,5.68
2018-01-18T12:42:31.265Z,4.60
2018-01-18T12:44:58.227Z,5.30
2018-01-18T12:47:25.131Z,5.03
2018-01-18T12:49:52.048Z,4.62
2018-01-18T12:52:18.956Z,5.57
2018-01-18T12:54:45.890Z,7.40
2018-01-18T12:57:12.797Z,4.18
2018-01-18T12:59:39.751Z,5.07
2018-01-18T13:02:06.651Z,10.25
2018-01-18T13:04:33.563Z,6.57
2018-01-18T13:07:01.385Z,5.53
2018-01-18T13:09:28.328Z,7.45
2018-01-18T13:11:55.239Z,4.85
2018-01-18T13:14:22.164Z,5.57
2018-01-18T13:16:49.060Z,5.65
2018-01-18T13:19:15.991Z,10.68
2018-01-18T13:21:42.899Z,4.47
2018-01-18T13:24:09.825Z,6.57
2018-01-18T13:26:37.493Z,10.25
2018-01-18T13:29:04.420Z,11.75
2018-01-18T13:31:31.311Z,6.93
2018-01-18T13:33:58.216Z,6.18
2018-01-18T13:36:25.925Z,11.32
2018-01-18T13:38:52.829Z,5.25
2018-01-18T13:41:20.511Z,9.98
2018-01-18T13:43:47.404Z,6.80
2018-01-18T13:46:14.320Z,9.27
2018-01-18T13:48:41.212Z,9.07
2018-01-18T13:51:08.893Z,6.00
2018-01-18T13:53:35.816Z,8.05
2018-01-18T13:56:02.718Z,9.77
2018-01-18T13:58:29.632Z,6.47
2018-01-18T14:00:56.540Z,11.23
2018-01-18T14:03:23.460Z,6.82
2018-01-18T14:05:50.368Z,9.15
2018-01-18T14:08:18.180Z,6.72
2018-01-18T14:10:45.098Z,9.05
2018-01-18T14:13:12.040Z,11.05
2018-01-18T14:15:38.954Z,8.15
2018-01-18T14:18:05.871Z,8.48
2018-01-18T14:20:32.780Z,6.30
2018-01-18T14:22:59.679Z,12.13
2018-01-18T14:25:26.604Z,8.18
2018-01-18T14:27:54.280Z,7.37
2018-01-18T14:30:21.964Z,12.57
2018-01-18T14:32:48.884Z,7.37
2018-01-18T14:35:16.590Z,9.30
2018-01-18T14:37:43.518Z,8.13
2018-01-18T14:40:10.424Z,14.80
2018-01-18T14:42:38.122Z,7.07
2018-01-18T14:45:05.031Z,15.25
2018-01-18T14:49:59.624Z,7.80
2018-01-18T14:52:26.621Z,9.82
2018-01-18T14:54:53.566Z,10.48
2018-01-18T14:57:20.462Z,8.10
2018-01-18T14:59:47.375Z,6.93
2018-01-18T15:02:14.284Z,8.98
2018-01-18T15:04:41.197Z,9.98
2018-01-18T15:07:09.021Z,8.45
2018-01-18T15:09:35.919Z,6.32
2018-01-18T15:12:04.763Z,8.73
2018-01-18T15:14:31.664Z,8.85
2018-01-18T15:16:58.589Z,7.70
2018-01-18T15:19:27.163Z,10.48
2018-01-18T15:21:54.080Z,8.48
2018-01-18T15:24:20.992Z,9.77
2018-01-18T15:26:47.903Z,7.30
2018-01-18T15:29:15.608Z,13.55
2018-01-18T15:31:42.513Z,8.35
2018-01-18T15:34:10.210Z,8.52
2018-01-18T15:36:37.125Z,12.05
2018-01-18T15:39:04.851Z,8.00
2018-01-18T15:41:31.769Z,14.35
2018-01-18T15:43:58.712Z,6.15
2018-01-18T15:46:25.617Z,7.60
2018-01-18T15:48:53.300Z,6.85
2018-01-18T15:51:20.204Z,7.07
2018-01-18T15:53:47.151Z,7.28
2018-01-18T15:56:14.056Z,8.05
2018-01-18T15:58:41.004Z,10.27
2018-01-18T16:01:07.920Z,12.63
2018-01-18T16:03:35.760Z,16.10
2018-01-18T16:06:02.667Z,10.02
2018-01-18T16:08:29.606Z,9.98
2018-01-18T16:10:56.532Z,11.15
2018-01-18T16:13:23.485Z,10.88
2018-01-18T16:15:50.411Z,13.05
2018-01-18T16:18:17.337Z,14.82
2018-01-18T16:20:44.255Z,10.45
2018-01-18T16:23:11.179Z,15.88
2018-01-18T16:25:38.100Z,12.93
2018-01-18T16:28:05.059Z,15.25
2018-01-18T16:30:31.963Z,14.65
2018-01-18T16:32:58.916Z,14.98
2018-01-18T16:35:25.853Z,20.27
2018-01-18T16:37:53.548Z,20.92
2018-01-18T16:40:20.485Z,19.00
2018-01-18T16:42:47.429Z,19.83
2018-01-18T16:45:14.368Z,19.05
2018-01-18T16:47:41.318Z,20.52
2018-01-18T16:50:08.230Z,20.05
2018-01-18T16:52:35.937Z,32.28
2018-01-18T16:55:02.857Z,55.00
2018-01-18T16:57:29.797Z,29.05
2018-01-18T16:59:56.769Z,25.35
2018-01-18T17:02:23.739Z,28.20
2018-01-18T17:04:51.552Z,28.02
2018-01-18T17:07:19.284Z,26.67
2018-01-18T17:09:46.192Z,22.10
2018-01-18T17:12:13.129Z,20.08
2018-01-18T17:14:40.038Z,21.12
2018-01-18T17:17:06.953Z,34.28
2018-01-18T17:19:33.883Z,26.92
2018-01-18T17:22:00.803Z,20.55
2018-01-18T17:24:27.751Z,24.67
2018-01-18T17:26:54.672Z,20.77
2018-01-18T17:29:21.584Z,21.25
2018-01-18T17:31:48.514Z,26.40
2018-01-18T17:34:15.444Z,20.33
2018-01-18T17:36:42.344Z,25.20
2018-01-18T17:39:09.276Z,24.35
2018-01-18T17:41:36.206Z,23.75
2018-01-18T17:44:03.136Z,28.10
2018-01-18T17:46:30.041Z,32.20
2018-01-18T17:48:57.728Z,27.92
2018-01-18T17:51:24.636Z,31.17
2018-01-18T17:53:52.331Z,35.38
2018-01-18T17:56:19.246Z,34.97
2018-01-18T17:58:46.935Z,31.55
2018-01-18T18:01:13.847Z,30.20
2018-01-18T18:03:41.540Z,30.73
2018-01-18T18:06:08.443Z,33.20
2018-01-18T18:08:35.373Z,27.27
2018-01-18T18:11:02.286Z,25.90
2018-01-18T18:13:29.199Z,28.02
2018-01-18T18:15:56.869Z,23.83
2018-01-18T18:18:23.797Z,31.20
2018-01-18T18:20:50.705Z,26.37
2018-01-18T18:23:17.676Z,29.73
2018-01-18T18:25:45.390Z,30.80
2018-01-18T18:28:12.316Z,32.30
2018-01-18T18:30:39.263Z,36.17
2018-01-18T18:33:06.225Z,32.83
2018-01-18T18:35:34.046Z,32.42
2018-01-18T18:38:01.740Z,34.10
2018-01-18T18:40:28.660Z,36.85
2018-01-18T18:42:56.347Z,35.42
2018-01-18T18:45:23.274Z,33.03
2018-01-18T18:47:50.210Z,32.10
2018-01-18T18:50:17.896Z,39.20
2018-01-18T18:52:44.873Z,33.80
2018-01-18T18:55:11.784Z,35.50
2018-01-18T18:57:38.703Z,42.47
2018-01-18T19:00:06.526Z,33.55
2018-01-18T19:02:33.504Z,41.03
2018-01-18T19:05:01.332Z,42.85
2018-01-18T19:07:28.260Z,42.00
2018-01-18T19:09:55.177Z,41.00
2018-01-18T19:12:22.124Z,41.90
2018-01-18T19:14:49.049Z,31.75
2018-01-18T19:17:16.744Z,37.33
2018-01-18T19:19:43.649Z,38.30
2018-01-18T19:22:11.369Z,35.92
2018-01-18T19:24:38.329Z,38.17
2018-01-18T19:27:05.265Z,40.97
2018-01-18T19:29:32.196Z,44.90
2018-01-18T19:31:59.128Z,37.45
2018-01-18T19:34:26.073Z,38.40
2018-01-18T19:36:53.004Z,44.28
2018-01-18T19:39:19.937Z,39.53
2018-01-18T19:41:46.884Z,41.40
2018-01-18T19:44:13.794Z,41.85
2018-01-18T19:46:40.809Z,46.45
2018-01-18T19:49:07.741Z,50.30
2018-01-18T19:51:34.669Z,45.95
2018-01-18T19:54:01.578Z,54.20
2018-01-18T19:56:28.550Z,52.53
2018-01-18T19:58:55.457Z,43.85
2018-01-18T20:01:22.388Z,50.60
2018-01-18T20:03:49.312Z,45.88
2018-01-18T20:06:16.229Z,46.53
2018-01-18T20:08:43.125Z,43.05
2018-01-18T20:11:10.049Z,58.17
2018-01-18T20:13:36.953Z,46.80
2018-01-18T20:16:03.915Z,40.33
2018-01-18T20:18:30.843Z,56.83
2018-01-18T20:20:58.544Z,56.58
2018-01-18T20:23:25.462Z,50.80
2018-01-18T20:25:52.403Z,58.28
2018-01-18T20:28:20.083Z,52.33
2018-01-18T20:30:47.003Z,45.35
2018-01-18T20:33:14.684Z,51.47
2018-01-18T20:35:41.608Z,40.55
2018-01-18T20:38:08.524Z,47.53
2018-01-18T20:40:35.455Z,52.28
2018-01-18T20:43:02.434Z,45.47
2018-01-18T20:45:30.155Z,49.92
2018-01-18T20:47:57.063Z,53.63
2018-01-18T20:50:23.992Z,54.05
2018-01-18T20:52:52.631Z,45.53
2018-01-18T20:55:20.507Z,42.80
2018-01-18T20:57:47.441Z,47.53
2018-01-18T21:00:14.395Z,40.90
2018-01-18T21:02:44.877Z,50.03
2018-01-18T21:05:11.834Z,52.30
2018-01-18T21:07:38.779Z,46.22
2018-01-18T21:10:08.982Z,44.38
2018-01-18T21:12:35.932Z,51.03
2018-01-18T21:15:03.784Z,58.92
2018-01-18T21:17:30.694Z,60.38
2018-01-18T21:19:57.671Z,53.00
2018-01-18T21:22:24.587Z,52.72
2018-01-18T21:24:51.512Z,48.92
2018-01-18T21:27:18.440Z,45.35
2018-01-18T21:29:45.355Z,52.15
2018-01-18T21:32:13.028Z,48.10
2018-01-18T21:34:39.960Z,53.72
2018-01-18T21:37:06.908Z,49.75
2018-01-18T21:39:34.615Z,43.03
2018-01-18T21:42:01.545Z,48.45
2018-01-18T21:44:28.478Z,35.55
2018-01-18T21:46:55.404Z,38.95
2018-01-18T21:49:23.104Z,45.12
2018-01-18T21:51:50.018Z,43.35
2018-01-18T21:54:16.973Z,33.92
2018-01-18T21:56:43.900Z,27.55
2018-01-18T21:59:10.847Z,22.87
2018-01-18T22:01:37.773Z,20.05
2018-01-18T22:04:04.704Z,12.35
2018-01-18T22:06:31.611Z,20.83
2018-01-18T22:09:01.216Z,23.73
2018-01-18T22:11:28.932Z,24.98
2018-01-18T22:13:55.872Z,31.35
2018-01-18T22:16:22.803Z,33.15
2018-01-18T22:18:49.765Z,27.75
2018-01-18T22:21:16.684Z,37.20
2018-01-18T22:23:43.634Z,27.83
2018-01-18T22:26:10.560Z,30.12
2018-01-18T22:28:37.492Z,36.10
2018-01-18T22:31:04.424Z,33.15
2018-01-18T22:33:31.359Z,23.67
2018-01-18T22:35:58.300Z,28.75
2018-01-18T22:38:25.296Z,29.35
2018-01-18T22:40:52.969Z,36.40
2018-01-18T22:43:19.908Z,31.37
2018-01-18T22:45:46.828Z,39.20
2018-01-18T22:48:13.777Z,33.15
2018-01-18T22:50:41.463Z,37.28
2018-01-18T22:53:08.383Z,27.23
2018-01-18T22:55:35.295Z,31.37
2018-01-18T22:58:02.224Z,30.80
2018-01-18T23:00:29.147Z,37.00
2018-01-18T23:02:56.080Z,32.22
2018-01-18T23:05:22.999Z,38.42
2018-01-18T23:07:50.706Z,27.65
2018-01-18T23:10:17.636Z,35.60
2018-01-18T23:12:44.611Z,23.15
2018-01-18T23:15:11.488Z,37.40
2018-01-18T23:17:38.411Z,26.08
2018-01-18T23:20:05.316Z,33.33
2018-01-18T23:22:32.239Z,29.05
2018-01-18T23:24:59.140Z,27.05
2018-01-18T23:27:26.060Z,23.60
2018-01-18T23:29:53.731Z,30.17
2018-01-18T23:32:21.428Z,25.35
2018-01-18T23:34:48.328Z,26.20
2018-01-18T23:37:15.492Z,20.08
2018-01-18T23:39:42.404Z,19.00
2018-01-18T23:42:18.429Z,22.55
2018-01-18T23:44:45.336Z,17.15
2018-01-18T23:47:12.529Z,17.48
2018-01-18T23:49:39.435Z,18.50
2018-01-18T23:52:06.352Z,20.12
2018-01-18T23:54:33.260Z,16.45
2018-01-18T23:57:00.177Z,12.35
2018-01-18T23:59:27.094Z,16.48
